createdAt,value
2022-10-11T00:06:43.521Z,57.69
2022-10-11T00:27:47.370Z,62.94
2022-10-11T00:30:57.793Z,64.13
2022-10-11T00:41:01.394Z,65.09
2022-10-11T00:47:24.756Z,65.64
2022-10-11T00:50:04.253Z,65.16
2022-10-11T01:19:54.345Z,62.69
2022-10-11T01:26:29.336Z,63.12
2022-10-11T01:30:03.058Z,63.38
2022-10-11T01:32:44.999Z,63.67
2022-10-11T01:35:45.842Z,64.16
2022-10-11T01:38:33.954Z,63.84
2022-10-11T01:41:29.148Z,63.68
2022-10-11T01:51:29.441Z,63.69
2022-10-11T01:55:04.375Z,63.47
2022-10-11T01:57:51.969Z,63.96
2022-10-11T02:04:25.316Z,65.83
2022-10-11T02:10:54.458Z,65.49
2022-10-11T02:13:41.300Z,65.64
2022-10-11T02:16:25.685Z,65.71
2022-10-11T02:19:07.009Z,65.09
2022-10-11T02:22:04.073Z,65.20
2022-10-11T02:24:46.387Z,65.74
2022-10-11T02:27:30.549Z,66.18
2022-10-11T02:30:15.964Z,65.89
2022-10-11T02:32:56.407Z,65.79
2022-10-11T02:35:41.582Z,65.96
2022-10-11T02:38:25.036Z,65.56
2022-10-11T02:41:32.482Z,65.99
2022-10-11T02:44:20.112Z,66.53
2022-10-11T02:47:00.551Z,66.34
2022-10-11T02:49:39.881Z,66.05
2022-10-11T02:52:19.497Z,66.31
2022-10-11T03:05:22.860Z,67.63
2022-10-11T03:08:01.154Z,67.72
2022-10-11T03:10:39.379Z,67.75
2022-10-11T03:13:18.622Z,68.04
2022-10-11T03:16:03.248Z,67.73
2022-10-11T03:18:42.479Z,68.14
2022-10-11T03:21:21.717Z,68.30
2022-10-11T03:24:00.006Z,68.13
2022-10-11T03:26:38.160Z,68.59
2022-10-11T03:29:16.401Z,68.67
2022-10-11T03:31:56.391Z,68.86
2022-10-11T03:34:34.296Z,68.94
2022-10-11T03:37:14.305Z,69.20
2022-10-11T03:39:53.572Z,69.35
2022-10-11T03:42:32.471Z,69.55
2022-10-11T03:45:10.930Z,69.59
2022-10-11T03:47:50.159Z,69.96
2022-10-11T03:50:28.819Z,69.83
2022-10-11T04:03:46.946Z,71.64
2022-10-11T04:06:26.320Z,71.07
2022-10-11T04:09:05.226Z,71.06
2022-10-11T04:11:43.294Z,71.18
2022-10-11T04:24:45.272Z,72.51
2022-10-11T04:27:29.528Z,73.75
2022-10-11T04:30:19.669Z,72.81
2022-10-11T04:33:00.371Z,73.08
2022-10-11T04:35:38.696Z,72.20
2022-10-11T04:38:16.874Z,73.11
2022-10-11T04:40:56.030Z,72.70
2022-10-11T04:43:35.528Z,73.18
2022-10-11T04:46:14.693Z,72.13
2022-10-11T04:48:52.920Z,72.55
2022-10-11T04:51:31.090Z,71.69
2022-10-11T04:54:09.419Z,72.06
2022-10-11T04:56:47.800Z,72.59
2022-10-11T04:59:25.820Z,72.08
2022-10-11T05:02:05.518Z,72.12
2022-10-11T05:04:43.745Z,72.16
2022-10-11T05:07:21.925Z,73.76
2022-10-11T05:10:00.086Z,73.84
2022-10-11T05:12:38.474Z,73.50
2022-10-11T05:15:18.122Z,73.15
2022-10-11T05:17:57.237Z,73.57
2022-10-11T05:20:37.009Z,72.66
2022-10-11T05:23:15.823Z,72.44
2022-10-11T05:25:54.274Z,72.61
2022-10-11T05:28:32.835Z,72.28
2022-10-11T05:31:13.476Z,72.21
2022-10-11T05:33:51.935Z,72.62
2022-10-11T05:36:30.209Z,75.33
2022-10-11T05:39:23.035Z,73.10
2022-10-11T05:42:01.445Z,72.79
2022-10-11T05:44:39.823Z,71.84
2022-10-11T05:47:18.978Z,71.60
2022-10-11T05:49:59.153Z,72.46
2022-10-11T05:52:37.461Z,72.22
2022-10-11T05:55:15.988Z,73.06
2022-10-11T05:57:58.032Z,73.02
2022-10-11T06:00:40.720Z,73.46
2022-10-11T06:03:21.176Z,74.53
2022-10-11T06:06:03.479Z,74.10
2022-10-11T06:08:44.592Z,74.32
2022-10-11T06:11:26.468Z,76.20
2022-10-11T06:14:20.157Z,76.16
2022-10-11T06:17:15.469Z,75.17
2022-10-11T06:20:08.290Z,74.43
2022-10-11T06:23:06.201Z,73.67
2022-10-11T06:26:08.606Z,73.50
2022-10-11T06:29:07.456Z,72.72
2022-10-11T06:32:03.347Z,72.34
2022-10-11T06:34:57.224Z,72.05
2022-10-11T06:37:52.712Z,71.92
2022-10-11T06:41:14.155Z,71.76
2022-10-11T06:44:14.510Z,71.93
2022-10-11T06:47:07.657Z,73.16
2022-10-11T06:50:06.438Z,72.73
2022-10-11T06:53:02.790Z,72.33
2022-10-11T06:56:08.677Z,71.65
2022-10-11T06:59:01.943Z,70.72
2022-10-11T07:01:54.694Z,70.39
2022-10-11T07:04:46.396Z,70.26
2022-10-11T07:07:44.029Z,68.82
2022-10-11T07:10:40.925Z,67.63
2022-10-11T07:13:34.081Z,66.80
2022-10-11T07:16:36.593Z,66.24
2022-10-11T07:19:32.167Z,66.30
2022-10-11T07:22:27.484Z,65.73
2022-10-11T07:25:26.132Z,64.52
2022-10-11T07:28:21.202Z,64.00
2022-10-11T07:31:20.624Z,63.39
2022-10-11T07:34:12.400Z,63.03
2022-10-11T07:37:08.840Z,62.11
2022-10-11T07:40:01.760Z,61.20
2022-10-11T07:42:53.322Z,60.87
2022-10-11T07:46:19.253Z,62.00
2022-10-11T07:49:15.759Z,61.10
2022-10-11T07:52:23.556Z,60.73
2022-10-11T07:55:22.565Z,60.24
2022-10-11T07:58:14.478Z,59.96
2022-10-11T08:01:10.286Z,59.21
2022-10-11T08:04:06.055Z,58.71
2022-10-11T08:07:13.944Z,58.26
2022-10-11T08:10:10.131Z,57.91
2022-10-11T08:13:06.741Z,58.35
2022-10-11T08:16:10.118Z,58.51
2022-10-11T08:19:24.764Z,58.25
2022-10-11T08:22:25.813Z,57.32
2022-10-11T08:25:29.499Z,57.66
2022-10-11T08:28:25.605Z,57.07
2022-10-11T08:31:28.669Z,57.15
2022-10-11T08:34:24.338Z,57.05
2022-10-11T08:37:16.542Z,57.08
2022-10-11T08:40:24.416Z,57.30
2022-10-11T08:43:35.168Z,57.00
2022-10-11T08:46:35.453Z,57.36
2022-10-11T08:49:33.648Z,57.23
2022-10-11T08:52:05.176Z,57.00
2022-10-11T08:55:18.352Z,56.95
2022-10-11T08:57:53.332Z,57.40
2022-10-11T09:00:21.416Z,58.22
2022-10-11T09:03:08.453Z,58.31
2022-10-11T09:05:49.549Z,58.48
2022-10-11T09:08:39.984Z,57.42
2022-10-11T09:11:28.990Z,58.30
2022-10-11T09:14:19.428Z,58.19
2022-10-11T09:16:58.693Z,58.78
2022-10-11T09:19:25.737Z,58.23
2022-10-11T09:22:30.259Z,58.53
2022-10-11T09:25:16.744Z,58.53
2022-10-11T09:28:02.457Z,58.42
2022-10-11T09:30:30.864Z,58.38
2022-10-11T09:33:24.648Z,58.35
2022-10-11T09:35:52.943Z,57.78
2022-10-11T09:39:06.316Z,57.69
2022-10-11T09:41:45.679Z,58.24
2022-10-11T09:44:23.759Z,59.02
2022-10-11T09:46:54.604Z,58.65
2022-10-11T09:49:25.515Z,58.79
2022-10-11T09:51:56.492Z,57.76
2022-10-11T09:54:41.389Z,57.14
2022-10-11T09:57:25.023Z,58.00
2022-10-11T10:00:27.984Z,58.76
2022-10-11T10:03:01.428Z,58.75
2022-10-11T10:05:31.710Z,59.79
2022-10-11T10:08:22.736Z,59.13
2022-10-11T10:10:59.684Z,59.66
2022-10-11T10:13:46.226Z,59.18
2022-10-11T10:16:27.421Z,59.51
2022-10-11T10:19:17.260Z,59.18
2022-10-11T10:21:48.465Z,59.84
2022-10-11T10:24:24.869Z,59.51
2022-10-11T10:27:16.994Z,59.29
2022-10-11T10:29:59.692Z,59.75
2022-10-11T10:32:36.130Z,59.59
2022-10-11T10:35:12.291Z,59.31
2022-10-11T10:37:51.647Z,59.69
2022-10-11T10:40:39.484Z,58.75
2022-10-11T10:43:09.100Z,57.93
2022-10-11T10:46:08.446Z,57.97
2022-10-11T10:52:43.752Z,57.92
2022-10-11T10:55:38.485Z,57.53
2022-10-11T10:58:28.123Z,57.25
2022-10-11T11:01:05.545Z,57.55
2022-10-11T11:04:07.638Z,57.33
2022-10-11T11:06:55.668Z,56.72
2022-10-11T11:09:36.225Z,56.45
2022-10-11T11:12:31.248Z,55.95
2022-10-11T11:15:04.563Z,56.40
2022-10-11T11:18:03.819Z,56.20
2022-10-11T11:20:42.872Z,56.01
2022-10-11T11:23:16.121Z,55.61
2022-10-11T11:25:56.189Z,55.89
2022-10-11T11:28:42.749Z,55.84
2022-10-11T11:31:15.861Z,56.73
2022-10-11T11:34:15.315Z,56.84
2022-10-11T11:37:00.399Z,56.56
2022-10-11T11:39:35.880Z,57.29
2022-10-11T11:42:09.557Z,56.73
2022-10-11T11:44:41.650Z,56.38
2022-10-11T11:47:26.675Z,56.27
2022-10-11T11:50:20.958Z,56.51
2022-10-11T11:52:58.175Z,56.86
2022-10-11T11:55:43.650Z,56.70
2022-10-11T11:58:50.707Z,56.82
2022-10-11T12:01:26.460Z,56.29
2022-10-11T12:04:03.085Z,56.47
2022-10-11T12:06:33.591Z,55.58
2022-10-11T12:09:04.024Z,55.88
2022-10-11T12:11:42.541Z,55.74
2022-10-11T12:14:22.546Z,55.28
2022-10-11T12:17:14.499Z,55.48
2022-10-11T12:20:00.008Z,55.97
2022-10-11T12:22:27.093Z,55.88
2022-10-11T12:25:09.439Z,55.87
2022-10-11T12:27:41.257Z,55.19
2022-10-11T12:30:51.036Z,55.89
2022-10-11T12:33:23.449Z,56.21
2022-10-11T12:35:53.647Z,55.74
2022-10-11T12:38:28.568Z,56.07
2022-10-11T12:40:57.279Z,55.89
2022-10-11T12:43:26.461Z,55.74
2022-10-11T12:45:53.780Z,55.53
2022-10-11T12:48:34.889Z,54.90
2022-10-11T12:51:36.830Z,55.35
2022-10-11T12:54:30.029Z,55.19
2022-10-11T12:57:31.074Z,55.78
2022-10-11T13:00:19.030Z,55.39
2022-10-11T13:02:47.380Z,55.37
2022-10-11T13:05:35.245Z,55.16
2022-10-11T13:08:05.584Z,55.61
2022-10-11T13:10:44.252Z,56.40
2022-10-11T13:13:29.857Z,55.78
2022-10-11T13:15:59.977Z,55.18
2022-10-11T13:18:27.579Z,54.97
2022-10-11T13:20:54.922Z,55.80
2022-10-11T13:23:28.681Z,56.05
2022-10-11T13:25:56.794Z,56.55
2022-10-11T13:28:24.222Z,55.64
2022-10-11T13:30:56.576Z,55.71
2022-10-11T13:33:33.721Z,55.52
2022-10-11T13:36:03.235Z,55.78
2022-10-11T13:38:36.943Z,55.75
2022-10-11T13:41:05.608Z,55.88
2022-10-11T13:43:34.398Z,55.84
2022-10-11T13:46:06.430Z,55.91
2022-10-11T13:48:41.156Z,55.53
2022-10-11T13:51:27.522Z,55.43
2022-10-11T13:54:01.193Z,55.55
2022-10-11T13:56:31.853Z,55.38
2022-10-11T13:59:00.449Z,55.10
2022-10-11T14:01:36.286Z,55.24
2022-10-11T14:04:07.080Z,55.32
2022-10-11T14:06:46.406Z,55.67
2022-10-11T14:09:38.514Z,55.70
2022-10-11T14:12:33.604Z,55.88
2022-10-11T14:15:04.150Z,55.74
2022-10-11T14:17:43.464Z,56.06
2022-10-11T14:20:34.493Z,55.98
2022-10-11T14:23:08.249Z,55.70
2022-10-11T14:25:35.687Z,56.24
2022-10-11T14:28:02.902Z,56.43
2022-10-11T14:30:31.733Z,56.31
2022-10-11T14:33:01.723Z,56.40
2022-10-11T14:35:32.706Z,56.36
2022-10-11T14:38:00.456Z,56.88
2022-10-11T14:40:30.477Z,57.08
2022-10-11T14:42:57.935Z,57.18
2022-10-11T14:45:25.618Z,57.37
2022-10-11T14:47:52.963Z,57.84
2022-10-11T14:50:29.201Z,58.04
2022-10-11T14:52:56.755Z,57.90
2022-10-11T14:55:24.805Z,57.90
2022-10-11T14:57:52.116Z,57.56
2022-10-11T15:00:23.302Z,57.29
2022-10-11T15:02:52.806Z,58.07
2022-10-11T15:05:21.485Z,57.72
2022-10-11T15:07:50.084Z,58.13
2022-10-11T15:10:20.358Z,58.39
2022-10-11T15:12:51.937Z,58.40
2022-10-11T15:15:23.538Z,58.21
2022-10-11T15:17:56.593Z,58.71
2022-10-11T15:20:33.764Z,58.57
2022-10-11T15:23:01.461Z,58.95
2022-10-11T15:25:29.741Z,59.02
2022-10-11T15:27:57.706Z,58.00
2022-10-11T15:30:31.468Z,58.48
2022-10-11T15:33:01.772Z,58.54
2022-10-11T15:35:29.896Z,60.05
2022-10-11T15:37:59.695Z,60.17
2022-10-11T15:40:37.070Z,61.32
2022-10-11T15:43:04.734Z,62.10
2022-10-11T15:45:31.845Z,61.50
2022-10-11T15:47:59.335Z,61.91
2022-10-11T15:50:37.583Z,62.37
2022-10-11T15:53:08.436Z,63.18
2022-10-11T15:55:51.624Z,63.79
2022-10-11T16:01:33.056Z,64.52
2022-10-11T16:04:00.458Z,64.79
2022-10-11T16:06:28.622Z,64.97
2022-10-11T16:08:55.906Z,65.87
2022-10-11T16:11:23.755Z,66.28
2022-10-11T16:13:51.568Z,65.66
2022-10-11T16:16:19.156Z,65.84
2022-10-11T16:18:46.453Z,66.70
2022-10-11T16:21:15.662Z,66.89
2022-10-11T16:23:43.156Z,66.79
2022-10-11T16:26:14.004Z,66.89
2022-10-11T16:28:42.286Z,66.94
2022-10-11T16:31:13.319Z,67.37
2022-10-11T16:33:46.086Z,67.24
2022-10-11T16:36:34.180Z,67.73
2022-10-11T16:39:04.769Z,68.02
2022-10-11T16:41:32.054Z,68.02
2022-10-11T16:43:59.885Z,68.42
2022-10-11T16:46:27.113Z,68.89
2022-10-11T16:48:58.612Z,69.10
2022-10-11T16:51:25.982Z,68.90
2022-10-11T16:53:53.554Z,68.73
2022-10-11T16:56:24.257Z,69.27
2022-10-11T16:58:53.371Z,69.52
2022-10-11T17:01:21.440Z,69.40
2022-10-11T17:03:49.670Z,70.10
2022-10-11T17:06:17.584Z,70.09
2022-10-11T17:08:45.166Z,70.21
2022-10-11T17:11:17.075Z,70.37
2022-10-11T17:13:45.899Z,70.57
2022-10-11T17:16:13.572Z,70.71
2022-10-11T17:18:43.454Z,70.84
2022-10-11T17:21:24.073Z,70.82
2022-10-11T17:23:51.617Z,71.48
2022-10-11T17:26:21.925Z,72.14
2022-10-11T17:28:49.305Z,72.31
2022-10-11T17:31:20.901Z,72.02
2022-10-11T17:33:55.542Z,71.89
2022-10-11T17:36:34.820Z,72.23
2022-10-11T17:39:12.194Z,72.73
2022-10-11T17:44:52.347Z,75.55
2022-10-11T17:55:11.987Z,74.84
2022-10-11T17:57:59.151Z,74.65
2022-10-11T18:00:26.379Z,74.98
2022-10-11T18:02:56.551Z,74.67
2022-10-11T18:05:24.460Z,74.59
2022-10-11T18:07:55.274Z,73.83
2022-10-11T18:10:23.412Z,73.14
2022-10-11T18:12:54.852Z,73.19
2022-10-11T18:15:22.057Z,73.44
2022-10-11T18:17:49.165Z,74.75
2022-10-11T18:20:16.601Z,76.80
2022-10-11T18:22:43.803Z,76.73
2022-10-11T18:25:10.948Z,75.96
2022-10-11T18:27:38.256Z,75.85
2022-10-11T18:30:06.156Z,75.73
2022-10-11T18:32:33.429Z,75.74
2022-10-11T18:35:00.612Z,75.65
2022-10-11T18:37:29.711Z,75.82
2022-10-11T18:39:56.975Z,76.73
2022-10-11T18:42:24.160Z,79.49
2022-10-11T18:44:51.409Z,80.85
2022-10-11T18:47:18.496Z,82.63
2022-10-11T18:49:45.705Z,82.29
2022-10-11T18:52:12.939Z,82.82
2022-10-11T18:54:40.147Z,83.11
2022-10-11T18:57:07.284Z,84.31
2022-10-11T18:59:34.452Z,83.95
2022-10-11T19:02:01.721Z,83.51
2022-10-11T19:04:33.349Z,83.42
2022-10-11T19:07:01.594Z,84.72
2022-10-11T19:09:30.881Z,86.70
2022-10-11T19:11:58.775Z,86.16
2022-10-11T19:14:29.136Z,85.55
2022-10-11T19:16:59.680Z,84.90
2022-10-11T19:19:29.637Z,84.32
2022-10-11T19:21:57.535Z,83.72
2022-10-11T19:24:28.005Z,83.63
2022-10-11T19:27:01.213Z,83.67
2022-10-11T19:29:29.989Z,84.69
2022-10-11T19:32:00.131Z,86.03
2022-10-11T19:34:28.916Z,88.07
2022-10-11T19:36:56.866Z,87.97
2022-10-11T19:39:24.894Z,87.07
2022-10-11T19:41:52.719Z,86.48
2022-10-11T19:44:20.515Z,86.46
2022-10-11T19:46:52.348Z,85.92
2022-10-11T19:49:24.063Z,87.70
2022-10-11T19:51:52.408Z,87.48
2022-10-11T19:54:20.057Z,87.39
2022-10-11T19:56:47.882Z,87.11
2022-10-11T19:59:15.813Z,86.48
2022-10-11T20:01:46.643Z,86.10
2022-10-11T20:04:39.579Z,87.52
2022-10-11T20:07:02.513Z,87.98
2022-10-11T20:09:30.764Z,87.32
2022-10-11T20:11:59.128Z,88.46
2022-10-11T20:14:26.873Z,87.71
2022-10-11T20:16:54.298Z,87.39
2022-10-11T20:19:26.303Z,86.79
2022-10-11T20:21:55.469Z,87.04
2022-10-11T20:24:22.616Z,86.48
2022-10-11T20:26:49.840Z,86.01
2022-10-11T20:29:17.424Z,85.68
2022-10-11T20:31:44.850Z,85.42
2022-10-11T20:34:12.357Z,86.18
2022-10-11T20:36:39.624Z,86.15
2022-10-11T20:39:06.873Z,85.86
2022-10-11T20:41:40.110Z,85.31
2022-10-11T20:44:07.976Z,85.15
2022-10-11T20:46:38.217Z,84.82
2022-10-11T20:49:11.414Z,84.81
2022-10-11T20:51:41.802Z,84.68
2022-10-11T20:54:09.947Z,85.45
2022-10-11T20:56:38.310Z,85.80
2022-10-11T20:59:06.370Z,87.20
2022-10-11T21:01:37.585Z,86.66
2022-10-11T21:04:08.609Z,87.64
2022-10-11T21:06:36.020Z,87.42
2022-10-11T21:09:03.380Z,87.06
2022-10-11T21:11:36.561Z,86.76
2022-10-11T21:14:06.518Z,86.79
2022-10-11T21:16:37.753Z,87.05
2022-10-11T21:19:12.140Z,86.66
2022-10-11T21:21:39.649Z,87.07
2022-10-11T21:24:06.906Z,87.29
2022-10-11T21:26:35.456Z,89.62
2022-10-11T21:29:04.241Z,89.02
2022-10-11T21:31:34.403Z,89.68
2022-10-11T21:34:02.802Z,89.64
2022-10-11T21:36:30.198Z,91.66
2022-10-11T21:38:57.810Z,91.24
2022-10-11T21:41:29.188Z,91.49
2022-10-11T21:43:56.902Z,90.73
2022-10-11T21:46:47.696Z,91.15
2022-10-11T21:49:20.952Z,90.38
2022-10-11T21:51:48.173Z,90.14
2022-10-11T21:54:15.481Z,90.76
2022-10-11T21:56:43.143Z,90.33
2022-10-11T21:59:12.785Z,90.91
2022-10-11T22:01:42.087Z,92.82
2022-10-11T22:04:10.359Z,94.16
2022-10-11T22:06:38.615Z,97.05
2022-10-11T22:09:06.964Z,96.08
2022-10-11T22:11:37.481Z,95.14
2022-10-11T22:14:05.199Z,94.93
2022-10-11T22:16:34.393Z,95.49
2022-10-11T22:19:01.789Z,95.19
2022-10-11T22:21:28.949Z,94.40
2022-10-11T22:23:56.292Z,94.29
2022-10-11T22:26:30.955Z,93.78
2022-10-11T22:28:59.421Z,93.11
2022-10-11T22:31:30.201Z,93.23
2022-10-11T22:33:59.872Z,93.35
2022-10-11T22:36:28.875Z,93.74
2022-10-11T22:38:56.395Z,94.01
2022-10-11T22:41:24.201Z,94.16
2022-10-11T22:43:51.855Z,93.84
2022-10-11T22:46:19.110Z,94.26
2022-10-11T22:48:46.487Z,94.89
2022-10-11T22:51:14.776Z,95.36
2022-10-11T22:53:42.220Z,95.26
2022-10-11T22:56:10.848Z,94.76
2022-10-11T22:58:38.363Z,95.87
2022-10-11T23:01:14.643Z,96.13
2022-10-11T23:03:42.367Z,96.52
2022-10-11T23:06:10.053Z,95.88
2022-10-11T23:08:37.615Z,95.45
2022-10-11T23:11:06.469Z,94.82
2022-10-11T23:13:34.581Z,94.88
2022-10-11T23:16:12.307Z,94.73
2022-10-11T23:18:39.883Z,94.39
2022-10-11T23:21:07.502Z,94.18
2022-10-11T23:23:35.165Z,94.31
2022-10-11T23:26:14.785Z,95.03
2022-10-11T23:28:43.551Z,95.24
2022-10-11T23:31:16.934Z,95.71
2022-10-11T23:33:46.007Z,95.04
2022-10-11T23:36:25.122Z,94.89
2022-10-11T23:38:54.733Z,94.45
2022-10-11T23:41:23.492Z,94.74
2022-10-11T23:43:50.928Z,94.44
2022-10-11T23:46:18.207Z,95.35
2022-10-11T23:48:45.838Z,95.13
2022-10-11T23:51:14.267Z,95.07
2022-10-11T23:53:42.645Z,95.04
2022-10-11T23:56:11.797Z,95.17
2022-10-11T23:58:39.227Z,95.80
